sensor_id;sensor_type;location;lat;lon;timestamp;pressure;altitude;pressure_sealevel;temperature
24639;BMP180;1641;51.306;12.384;2022-11-20T00:00:12;99783.00;;;-1.70
24639;BMP180;1641;51.306;12.384;2022-11-20T00:02:37;99776.00;;;-1.70
24639;BMP180;1641;51.306;12.384;2022-11-20T00:05:03;99759.00;;;-1.60
24639;BMP180;1641;51.306;12.384;2022-11-20T00:07:29;99686.00;;;-1.70
24639;BMP180;1641;51.306;12.384;2022-11-20T00:09:54;99767.00;;;-1.60
24639;BMP180;1641;51.306;12.384;2022-11-20T00:12:20;99719.00;;;-1.50
24639;BMP180;1641;51.306;12.384;2022-11-20T00:14:45;99705.00;;;-1.20
24639;BMP180;1641;51.306;12.384;2022-11-20T00:17:10;99690.00;;;-1.00
24639;BMP180;1641;51.306;12.384;2022-11-20T00:19:35;99786.00;;;-1.00
24639;BMP180;1641;51.306;12.384;2022-11-20T00:22:01;99774.00;;;-1.00
24639;BMP180;1641;51.306;12.384;2022-11-20T00:24:26;99709.00;;;-1.10
24639;BMP180;1641;51.306;12.384;2022-11-20T00:26:51;99781.00;;;-1.10
24639;BMP180;1641;51.306;12.384;2022-11-20T00:29:16;99777.00;;;-1.10
24639;BMP180;1641;51.306;12.384;2022-11-20T00:31:45;99765.00;;;-1.60
24639;BMP180;1641;51.306;12.384;2022-11-20T00:34:10;99767.00;;;-1.80
24639;BMP180;1641;51.306;12.384;2022-11-20T00:36:36;99748.00;;;-1.70
24639;BMP180;1641;51.306;12.384;2022-11-20T00:39:02;99777.00;;;-1.80
24639;BMP180;1641;51.306;12.384;2022-11-20T00:41:28;99727.00;;;-1.70
24639;BMP180;1641;51.306;12.384;2022-11-20T00:43:55;99727.00;;;-1.70
24639;BMP180;1641;51.306;12.384;2022-11-20T00:46:22;99775.00;;;-1.60
24639;BMP180;1641;51.306;12.384;2022-11-20T00:48:51;99714.00;;;-1.70
24639;BMP180;1641;51.306;12.384;2022-11-20T00:51:19;99740.00;;;-1.80
24639;BMP180;1641;51.306;12.384;2022-11-20T00:53:45;99766.00;;;-1.70
24639;BMP180;1641;51.306;12.384;2022-11-20T00:56:13;99767.00;;;-1.70
24639;BMP180;1641;51.306;12.384;2022-11-20T00:58:40;99779.00;;;-1.60
24639;BMP180;1641;51.306;12.384;2022-11-20T01:01:09;99756.00;;;-1.60
24639;BMP180;1641;51.306;12.384;2022-11-20T01:03:36;99772.00;;;-1.70
24639;BMP180;1641;51.306;12.384;2022-11-20T01:08:48;99772.00;;;-1.90
24639;BMP180;1641;51.306;12.384;2022-11-20T01:11:19;99766.00;;;-1.90
24639;BMP180;1641;51.306;12.384;2022-11-20T01:13:46;99759.00;;;-1.50
24639;BMP180;1641;51.306;12.384;2022-11-20T01:16:26;99754.00;;;-1.40
24639;BMP180;1641;51.306;12.384;2022-11-20T01:18:54;99761.00;;;-1.30
24639;BMP180;1641;51.306;12.384;2022-11-20T01:21:25;99764.00;;;-1.60
24639;BMP180;1641;51.306;12.384;2022-11-20T01:23:51;99767.00;;;-1.40
24639;BMP180;1641;51.306;12.384;2022-11-20T01:26:27;99771.00;;;-1.40
24639;BMP180;1641;51.306;12.384;2022-11-20T01:28:53;99771.00;;;-1.50
24639;BMP180;1641;51.306;12.384;2022-11-20T01:31:24;99773.00;;;-1.20
24639;BMP180;1641;51.306;12.384;2022-11-20T01:33:53;99772.00;;;-1.40
24639;BMP180;1641;51.306;12.384;2022-11-20T01:36:20;99760.00;;;-1.30
24639;BMP180;1641;51.306;12.384;2022-11-20T01:38:53;99778.00;;;-1.70
24639;BMP180;1641;51.306;12.384;2022-11-20T01:41:19;99737.00;;;-1.70
24639;BMP180;1641;51.306;12.384;2022-11-20T01:44:04;99779.00;;;-1.80
24639;BMP180;1641;51.306;12.384;2022-11-20T01:46:31;99761.00;;;-1.90
24639;BMP180;1641;51.306;12.384;2022-11-20T01:49:08;99761.00;;;-1.80
24639;BMP180;1641;51.306;12.384;2022-11-20T01:51:50;99753.00;;;-1.50
24639;BMP180;1641;51.306;12.384;2022-11-20T01:54:22;99752.00;;;-1.70
24639;BMP180;1641;51.306;12.384;2022-11-20T01:56:56;99691.00;;;-1.60
24639;BMP180;1641;51.306;12.384;2022-11-20T01:59:23;99675.00;;;-1.60
24639;BMP180;1641;51.306;12.384;2022-11-20T02:01:50;99742.00;;;-1.60
24639;BMP180;1641;51.306;12.384;2022-11-20T02:04:16;99745.00;;;-1.50
24639;BMP180;1641;51.306;12.384;2022-11-20T02:06:48;99741.00;;;-1.50
24639;BMP180;1641;51.306;12.384;2022-11-20T02:09:15;99739.00;;;-1.50
24639;BMP180;1641;51.306;12.384;2022-11-20T02:11:40;99687.00;;;-1.80
24639;BMP180;1641;51.306;12.384;2022-11-20T02:14:06;99722.00;;;-1.80
24639;BMP180;1641;51.306;12.384;2022-11-20T02:16:37;99741.00;;;-1.80
24639;BMP180;1641;51.306;12.384;2022-11-20T02:19:12;99643.00;;;-1.80
24639;BMP180;1641;51.306;12.384;2022-11-20T02:22:03;99728.00;;;-2.00
24639;BMP180;1641;51.306;12.384;2022-11-20T02:24:30;99739.00;;;-2.00
24639;BMP180;1641;51.306;12.384;2022-11-20T02:27:13;99731.00;;;-1.70
24639;BMP180;1641;51.306;12.384;2022-11-20T02:29:48;99685.00;;;-1.70
24639;BMP180;1641;51.306;12.384;2022-11-20T02:32:26;99723.00;;;-1.80
24639;BMP180;1641;51.306;12.384;2022-11-20T02:34:52;99649.00;;;-1.60
24639;BMP180;1641;51.306;12.384;2022-11-20T02:37:17;99686.00;;;-1.60
24639;BMP180;1641;51.306;12.384;2022-11-20T02:39:45;99711.00;;;-1.70
24639;BMP180;1641;51.306;12.384;2022-11-20T02:42:11;99727.00;;;-1.60
24639;BMP180;1641;51.306;12.384;2022-11-20T02:44:36;99697.00;;;-1.50
24639;BMP180;1641;51.306;12.384;2022-11-20T02:47:01;99709.00;;;-1.50
24639;BMP180;1641;51.306;12.384;2022-11-20T02:49:27;99737.00;;;-1.70
24639;BMP180;1641;51.306;12.384;2022-11-20T02:51:52;99689.00;;;-1.70
24639;BMP180;1641;51.306;12.384;2022-11-20T02:54:18;99726.00;;;-1.80
24639;BMP180;1641;51.306;12.384;2022-11-20T02:56:46;99667.00;;;-2.00
24639;BMP180;1641;51.306;12.384;2022-11-20T02:59:14;99716.00;;;-2.10
24639;BMP180;1641;51.306;12.384;2022-11-20T03:01:40;99698.00;;;-2.10
24639;BMP180;1641;51.306;12.384;2022-11-20T03:04:05;99599.00;;;-2.00
24639;BMP180;1641;51.306;12.384;2022-11-20T03:06:32;99706.00;;;-1.90
24639;BMP180;1641;51.306;12.384;2022-11-20T03:08:57;99714.00;;;-2.00
24639;BMP180;1641;51.306;12.384;2022-11-20T03:11:22;99713.00;;;-2.00
24639;BMP180;1641;51.306;12.384;2022-11-20T03:13:48;99717.00;;;-1.70
24639;BMP180;1641;51.306;12.384;2022-11-20T03:16:16;99709.00;;;-1.60
24639;BMP180;1641;51.306;12.384;2022-11-20T03:18:43;99717.00;;;-1.70
24639;BMP180;1641;51.306;12.384;2022-11-20T03:21:09;99653.00;;;-1.80
24639;BMP180;1641;51.306;12.384;2022-11-20T03:23:36;99712.00;;;-1.80
24639;BMP180;1641;51.306;12.384;2022-11-20T03:26:16;99655.00;;;-1.70
24639;BMP180;1641;51.306;12.384;2022-11-20T03:28:49;99716.00;;;-1.70
24639;BMP180;1641;51.306;12.384;2022-11-20T03:31:16;99701.00;;;-1.90
24639;BMP180;1641;51.306;12.384;2022-11-20T03:33:42;99711.00;;;-1.90
24639;BMP180;1641;51.306;12.384;2022-11-20T03:36:10;99703.00;;;-1.80
24639;BMP180;1641;51.306;12.384;2022-11-20T03:38:36;99690.00;;;-2.10
24639;BMP180;1641;51.306;12.384;2022-11-20T03:41:08;99689.00;;;-2.00
24639;BMP180;1641;51.306;12.384;2022-11-20T03:43:34;99680.00;;;-2.20
24639;BMP180;1641;51.306;12.384;2022-11-20T03:46:04;99681.00;;;-2.10
24639;BMP180;1641;51.306;12.384;2022-11-20T03:48:29;99692.00;;;-2.00
24639;BMP180;1641;51.306;12.384;2022-11-20T03:51:31;99688.00;;;-1.80
24639;BMP180;1641;51.306;12.384;2022-11-20T03:54:00;99683.00;;;-2.10
24639;BMP180;1641;51.306;12.384;2022-11-20T03:56:28;99681.00;;;-2.00
24639;BMP180;1641;51.306;12.384;2022-11-20T03:58:54;99657.00;;;-2.00
24639;BMP180;1641;51.306;12.384;2022-11-20T04:01:24;99681.00;;;-2.20
24639;BMP180;1641;51.306;12.384;2022-11-20T04:03:54;99629.00;;;-2.20
24639;BMP180;1641;51.306;12.384;2022-11-20T04:06:23;99665.00;;;-2.10
24639;BMP180;1641;51.306;12.384;2022-11-20T04:08:49;99658.00;;;-2.10
24639;BMP180;1641;51.306;12.384;2022-11-20T04:11:29;99640.00;;;-2.00
24639;BMP180;1641;51.306;12.384;2022-11-20T04:13:57;99675.00;;;-2.10
24639;BMP180;1641;51.306;12.384;2022-11-20T04:16:24;99691.00;;;-2.30
24639;BMP180;1641;51.306;12.384;2022-11-20T04:18:54;99681.00;;;-2.40
24639;BMP180;1641;51.306;12.384;2022-11-20T04:21:19;99636.00;;;-2.30
24639;BMP180;1641;51.306;12.384;2022-11-20T04:23:45;99675.00;;;-2.50
24639;BMP180;1641;51.306;12.384;2022-11-20T04:26:11;99646.00;;;-2.40
24639;BMP180;1641;51.306;12.384;2022-11-20T04:28:37;99679.00;;;-2.40
24639;BMP180;1641;51.306;12.384;2022-11-20T04:31:08;99682.00;;;-2.40
24639;BMP180;1641;51.306;12.384;2022-11-20T04:33:35;99673.00;;;-2.40
24639;BMP180;1641;51.306;12.384;2022-11-20T04:36:10;99684.00;;;-2.10
24639;BMP180;1641;51.306;12.384;2022-11-20T04:38:36;99617.00;;;-2.40
24639;BMP180;1641;51.306;12.384;2022-11-20T04:41:03;99618.00;;;-2.00
24639;BMP180;1641;51.306;12.384;2022-11-20T04:43:30;99617.00;;;-1.90
24639;BMP180;1641;51.306;12.384;2022-11-20T04:45:57;99661.00;;;-2.30
24639;BMP180;1641;51.306;12.384;2022-11-20T04:48:23;99668.00;;;-2.20
24639;BMP180;1641;51.306;12.384;2022-11-20T04:50:48;99595.00;;;-2.30
24639;BMP180;1641;51.306;12.384;2022-11-20T04:53:14;99667.00;;;-2.20
24639;BMP180;1641;51.306;12.384;2022-11-20T04:55:39;99652.00;;;-2.10
24639;BMP180;1641;51.306;12.384;2022-11-20T04:58:05;99665.00;;;-2.10
24639;BMP180;1641;51.306;12.384;2022-11-20T05:00:30;99674.00;;;-2.10
24639;BMP180;1641;51.306;12.384;2022-11-20T05:02:56;99669.00;;;-2.20
24639;BMP180;1641;51.306;12.384;2022-11-20T05:05:21;99678.00;;;-2.00
24639;BMP180;1641;51.306;12.384;2022-11-20T05:07:46;99659.00;;;-2.10
24639;BMP180;1641;51.306;12.384;2022-11-20T05:10:14;99666.00;;;-2.20
24639;BMP180;1641;51.306;12.384;2022-11-20T05:12:40;99545.00;;;-2.50
24639;BMP180;1641;51.306;12.384;2022-11-20T05:15:05;99674.00;;;-2.60
24639;BMP180;1641;51.306;12.384;2022-11-20T05:17:31;99661.00;;;-2.50
24639;BMP180;1641;51.306;12.384;2022-11-20T05:19:56;99624.00;;;-2.50
24639;BMP180;1641;51.306;12.384;2022-11-20T05:22:22;99601.00;;;-2.60
24639;BMP180;1641;51.306;12.384;2022-11-20T05:24:47;99669.00;;;-2.60
24639;BMP180;1641;51.306;12.384;2022-11-20T05:27:12;99614.00;;;-2.50
24639;BMP180;1641;51.306;12.384;2022-11-20T05:29:37;99665.00;;;-2.60
24639;BMP180;1641;51.306;12.384;2022-11-20T05:32:03;99587.00;;;-2.80
24639;BMP180;1641;51.306;12.384;2022-11-20T05:34:30;99650.00;;;-2.90
24639;BMP180;1641;51.306;12.384;2022-11-20T05:36:55;99645.00;;;-3.10
24639;BMP180;1641;51.306;12.384;2022-11-20T05:39:30;99647.00;;;-2.90
24639;BMP180;1641;51.306;12.384;2022-11-20T05:41:58;99637.00;;;-2.90
24639;BMP180;1641;51.306;12.384;2022-11-20T05:44:42;99640.00;;;-2.70
24639;BMP180;1641;51.306;12.384;2022-11-20T05:47:10;99642.00;;;-2.70
24639;BMP180;1641;51.306;12.384;2022-11-20T05:49:36;99631.00;;;-2.70
24639;BMP180;1641;51.306;12.384;2022-11-20T05:52:01;99567.00;;;-2.60
24639;BMP180;1641;51.306;12.384;2022-11-20T05:54:26;99623.00;;;-2.60
24639;BMP180;1641;51.306;12.384;2022-11-20T05:56:52;99627.00;;;-2.50
24639;BMP180;1641;51.306;12.384;2022-11-20T05:59:17;99622.00;;;-2.50
24639;BMP180;1641;51.306;12.384;2022-11-20T06:01:42;99638.00;;;-2.60
24639;BMP180;1641;51.306;12.384;2022-11-20T06:04:07;99542.00;;;-2.80
24639;BMP180;1641;51.306;12.384;2022-11-20T06:06:33;99635.00;;;-2.90
24639;BMP180;1641;51.306;12.384;2022-11-20T06:08:58;99587.00;;;-2.70
24639;BMP180;1641;51.306;12.384;2022-11-20T06:11:24;99577.00;;;-2.50
24639;BMP180;1641;51.306;12.384;2022-11-20T06:13:50;99636.00;;;-2.50
24639;BMP180;1641;51.306;12.384;2022-11-20T06:16:18;99613.00;;;-2.40
24639;BMP180;1641;51.306;12.384;2022-11-20T06:18:44;99621.00;;;-2.90
24639;BMP180;1641;51.306;12.384;2022-11-20T06:21:13;99631.00;;;-2.80
24639;BMP180;1641;51.306;12.384;2022-11-20T06:23:39;99623.00;;;-2.60
24639;BMP180;1641;51.306;12.384;2022-11-20T06:26:13;99596.00;;;-2.80
24639;BMP180;1641;51.306;12.384;2022-11-20T06:28:39;99574.00;;;-3.20
24639;BMP180;1641;51.306;12.384;2022-11-20T06:31:06;99597.00;;;-2.80
24639;BMP180;1641;51.306;12.384;2022-11-20T06:33:31;99632.00;;;-3.00
24639;BMP180;1641;51.306;12.384;2022-11-20T06:35:58;99638.00;;;-2.70
24639;BMP180;1641;51.306;12.384;2022-11-20T06:38:24;99599.00;;;-2.60
24639;BMP180;1641;51.306;12.384;2022-11-20T06:40:50;99630.00;;;-2.60
24639;BMP180;1641;51.306;12.384;2022-11-20T06:43:15;99631.00;;;-2.70
24639;BMP180;1641;51.306;12.384;2022-11-20T06:45:40;99624.00;;;-2.70
24639;BMP180;1641;51.306;12.384;2022-11-20T06:48:06;99555.00;;;-2.70
24639;BMP180;1641;51.306;12.384;2022-11-20T06:50:31;99640.00;;;-2.80
24639;BMP180;1641;51.306;12.384;2022-11-20T06:52:56;99591.00;;;-2.80
24639;BMP180;1641;51.306;12.384;2022-11-20T06:55:24;99540.00;;;-3.00
24639;BMP180;1641;51.306;12.384;2022-11-20T06:57:50;99549.00;;;-2.80
24639;BMP180;1641;51.306;12.384;2022-11-20T07:00:15;99521.00;;;-2.90
24639;BMP180;1641;51.306;12.384;2022-11-20T07:02:41;99554.00;;;-2.80
24639;BMP180;1641;51.306;12.384;2022-11-20T07:05:09;99550.00;;;-2.60
24639;BMP180;1641;51.306;12.384;2022-11-20T07:07:37;99629.00;;;-2.70
24639;BMP180;1641;51.306;12.384;2022-11-20T07:10:03;99630.00;;;-2.60
24639;BMP180;1641;51.306;12.384;2022-11-20T07:12:28;99557.00;;;-2.30
24639;BMP180;1641;51.306;12.384;2022-11-20T07:14:53;99630.00;;;-2.30
24639;BMP180;1641;51.306;12.384;2022-11-20T07:17:19;99623.00;;;-2.60
24639;BMP180;1641;51.306;12.384;2022-11-20T07:19:44;99552.00;;;-2.60
24639;BMP180;1641;51.306;12.384;2022-11-20T07:22:09;99548.00;;;-2.70
24639;BMP180;1641;51.306;12.384;2022-11-20T07:24:34;99534.00;;;-2.80
24639;BMP180;1641;51.306;12.384;2022-11-20T07:27:00;99623.00;;;-2.50
24639;BMP180;1641;51.306;12.384;2022-11-20T07:29:25;99640.00;;;-2.20
24639;BMP180;1641;51.306;12.384;2022-11-20T07:31:51;99632.00;;;-2.30
24639;BMP180;1641;51.306;12.384;2022-11-20T07:34:16;99628.00;;;-2.00
24639;BMP180;1641;51.306;12.384;2022-11-20T07:36:41;99638.00;;;-2.20
24639;BMP180;1641;51.306;12.384;2022-11-20T07:39:07;99638.00;;;-2.20
24639;BMP180;1641;51.306;12.384;2022-11-20T07:41:32;99641.00;;;-2.30
24639;BMP180;1641;51.306;12.384;2022-11-20T07:43:58;99633.00;;;-2.10
24639;BMP180;1641;51.306;12.384;2022-11-20T07:46:23;99635.00;;;-2.20
24639;BMP180;1641;51.306;12.384;2022-11-20T07:48:48;99585.00;;;-1.20
24639;BMP180;1641;51.306;12.384;2022-11-20T07:51:14;99624.00;;;0.00
24639;BMP180;1641;51.306;12.384;2022-11-20T07:53:40;99580.00;;;0.90
24639;BMP180;1641;51.306;12.384;2022-11-20T07:56:06;99607.00;;;2.10
24639;BMP180;1641;51.306;12.384;2022-11-20T07:58:31;99546.00;;;2.60
24639;BMP180;1641;51.306;12.384;2022-11-20T08:01:04;99581.00;;;2.50
24639;BMP180;1641;51.306;12.384;2022-11-20T08:03:39;99629.00;;;4.00
24639;BMP180;1641;51.306;12.384;2022-11-20T08:06:05;99610.00;;;3.50
24639;BMP180;1641;51.306;12.384;2022-11-20T08:08:30;99630.00;;;3.60
24639;BMP180;1641;51.306;12.384;2022-11-20T08:10:59;99627.00;;;4.00
24639;BMP180;1641;51.306;12.384;2022-11-20T08:13:43;99628.00;;;4.50
24639;BMP180;1641;51.306;12.384;2022-11-20T08:16:27;99610.00;;;4.40
24639;BMP180;1641;51.306;12.384;2022-11-20T08:18:53;99596.00;;;4.80
24639;BMP180;1641;51.306;12.384;2022-11-20T08:21:18;99608.00;;;3.00
24639;BMP180;1641;51.306;12.384;2022-11-20T08:23:43;99613.00;;;2.10
24639;BMP180;1641;51.306;12.384;2022-11-20T08:26:09;99618.00;;;3.50
24639;BMP180;1641;51.306;12.384;2022-11-20T08:28:34;99619.00;;;3.90
24639;BMP180;1641;51.306;12.384;2022-11-20T08:31:00;99630.00;;;4.10
24639;BMP180;1641;51.306;12.384;2022-11-20T08:33:26;99620.00;;;4.10
24639;BMP180;1641;51.306;12.384;2022-11-20T08:35:51;99615.00;;;3.80
24639;BMP180;1641;51.306;12.384;2022-11-20T08:38:17;99576.00;;;3.50
24639;BMP180;1641;51.306;12.384;2022-11-20T08:40:42;99597.00;;;3.50
24639;BMP180;1641;51.306;12.384;2022-11-20T08:43:29;99556.00;;;4.20
24639;BMP180;1641;51.306;12.384;2022-11-20T08:45:56;99595.00;;;5.00
24639;BMP180;1641;51.306;12.384;2022-11-20T08:48:22;99614.00;;;5.70
24639;BMP180;1641;51.306;12.384;2022-11-20T08:50:47;99622.00;;;4.90
24639;BMP180;1641;51.306;12.384;2022-11-20T08:53:12;99606.00;;;4.90
24639;BMP180;1641;51.306;12.384;2022-11-20T08:55:37;99606.00;;;5.50
24639;BMP180;1641;51.306;12.384;2022-11-20T08:58:05;99597.00;;;5.40
24639;BMP180;1641;51.306;12.384;2022-11-20T09:00:31;99580.00;;;5.20
24639;BMP180;1641;51.306;12.384;2022-11-20T09:02:57;99572.00;;;3.50
24639;BMP180;1641;51.306;12.384;2022-11-20T09:05:24;99630.00;;;2.50
24639;BMP180;1641;51.306;12.384;2022-11-20T09:07:49;99537.00;;;1.10
24639;BMP180;1641;51.306;12.384;2022-11-20T09:10:14;99625.00;;;1.00
24639;BMP180;1641;51.306;12.384;2022-11-20T09:12:39;99537.00;;;0.80
24639;BMP180;1641;51.306;12.384;2022-11-20T09:15:05;99630.00;;;0.60
24639;BMP180;1641;51.306;12.384;2022-11-20T09:17:30;99630.00;;;0.80
24639;BMP180;1641;51.306;12.384;2022-11-20T09:19:56;99534.00;;;0.50
24639;BMP180;1641;51.306;12.384;2022-11-20T09:22:21;99632.00;;;0.00
24639;BMP180;1641;51.306;12.384;2022-11-20T09:24:46;99634.00;;;0.20
24639;BMP180;1641;51.306;12.384;2022-11-20T09:27:11;99633.00;;;0.00
24639;BMP180;1641;51.306;12.384;2022-11-20T09:29:37;99622.00;;;0.20
24639;BMP180;1641;51.306;12.384;2022-11-20T09:32:02;99629.00;;;0.40
24639;BMP180;1641;51.306;12.384;2022-11-20T09:34:27;99606.00;;;0.20
24639;BMP180;1641;51.306;12.384;2022-11-20T09:36:53;99606.00;;;0.10
24639;BMP180;1641;51.306;12.384;2022-11-20T09:39:18;99539.00;;;-0.10
24639;BMP180;1641;51.306;12.384;2022-11-20T09:42:00;99621.00;;;0.10
24639;BMP180;1641;51.306;12.384;2022-11-20T09:50:36;99576.00;;;0.30
24639;BMP180;1641;51.306;12.384;2022-11-20T09:55:49;99618.00;;;0.30
24639;BMP180;1641;51.306;12.384;2022-11-20T09:58:40;99619.00;;;0.60
24639;BMP180;1641;51.306;12.384;2022-11-20T10:01:19;99608.00;;;0.40
24639;BMP180;1641;51.306;12.384;2022-11-20T10:04:03;99602.00;;;0.40
24639;BMP180;1641;51.306;12.384;2022-11-20T10:06:32;99612.00;;;0.40
24639;BMP180;1641;51.306;12.384;2022-11-20T10:12:13;99613.00;;;1.20
24639;BMP180;1641;51.306;12.384;2022-11-20T10:14:53;99608.00;;;0.90
24639;BMP180;1641;51.306;12.384;2022-11-20T10:17:42;99592.00;;;0.80
24639;BMP180;1641;51.306;12.384;2022-11-20T10:20:16;99584.00;;;0.70
24639;BMP180;1641;51.306;12.384;2022-11-20T10:22:57;99581.00;;;0.80
24639;BMP180;1641;51.306;12.384;2022-11-20T10:25:38;99504.00;;;1.00
24639;BMP180;1641;51.306;12.384;2022-11-20T10:30:36;99569.00;;;0.70
24639;BMP180;1641;51.306;12.384;2022-11-20T10:33:22;99572.00;;;1.00
24639;BMP180;1641;51.306;12.384;2022-11-20T10:36:40;99531.00;;;0.90
24639;BMP180;1641;51.306;12.384;2022-11-20T10:38:52;99571.00;;;0.70
24639;BMP180;1641;51.306;12.384;2022-11-20T10:41:30;99581.00;;;0.80
24639;BMP180;1641;51.306;12.384;2022-11-20T10:44:19;99566.00;;;1.40
24639;BMP180;1641;51.306;12.384;2022-11-20T10:47:05;99542.00;;;1.70
24639;BMP180;1641;51.306;12.384;2022-11-20T10:49:32;99486.00;;;1.70
24639;BMP180;1641;51.306;12.384;2022-11-20T10:52:28;99553.00;;;1.60
24639;BMP180;1641;51.306;12.384;2022-11-20T11:00:19;99506.00;;;2.00
24639;BMP180;1641;51.306;12.384;2022-11-20T11:02:53;99551.00;;;1.50
24639;BMP180;1641;51.306;12.384;2022-11-20T11:07:55;99516.00;;;1.90
24639;BMP180;1641;51.306;12.384;2022-11-20T11:10:42;99523.00;;;1.90
24639;BMP180;1641;51.306;12.384;2022-11-20T11:13:20;99533.00;;;1.60
24639;BMP180;1641;51.306;12.384;2022-11-20T11:15:46;99528.00;;;2.10
24639;BMP180;1641;51.306;12.384;2022-11-20T11:18:22;99518.00;;;2.20
24639;BMP180;1641;51.306;12.384;2022-11-20T11:20:52;99524.00;;;2.20
24639;BMP180;1641;51.306;12.384;2022-11-20T11:23:37;99516.00;;;1.90
24639;BMP180;1641;51.306;12.384;2022-11-20T11:26:18;99509.00;;;1.50
24639;BMP180;1641;51.306;12.384;2022-11-20T11:28:59;99518.00;;;2.00
24639;BMP180;1641;51.306;12.384;2022-11-20T11:31:32;99520.00;;;2.60
24639;BMP180;1641;51.306;12.384;2022-11-20T11:34:11;99526.00;;;2.60
24639;BMP180;1641;51.306;12.384;2022-11-20T11:36:37;99510.00;;;2.50
24639;BMP180;1641;51.306;12.384;2022-11-20T11:39:05;99507.00;;;2.10
24639;BMP180;1641;51.306;12.384;2022-11-20T11:41:33;99491.00;;;1.70
24639;BMP180;1641;51.306;12.384;2022-11-20T11:46:58;99471.00;;;1.20
24639;BMP180;1641;51.306;12.384;2022-11-20T11:49:24;99475.00;;;0.70
24639;BMP180;1641;51.306;12.384;2022-11-20T11:54:41;99512.00;;;1.00
24639;BMP180;1641;51.306;12.384;2022-11-20T12:00:16;99524.00;;;0.50
24639;BMP180;1641;51.306;12.384;2022-11-20T12:05:22;99527.00;;;1.70
24639;BMP180;1641;51.306;12.384;2022-11-20T12:15:57;99505.00;;;1.60
24639;BMP180;1641;51.306;12.384;2022-11-20T12:18:23;99504.00;;;1.70
24639;BMP180;1641;51.306;12.384;2022-11-20T12:21:07;99496.00;;;1.80
24639;BMP180;1641;51.306;12.384;2022-11-20T12:26:38;99490.00;;;1.90
24639;BMP180;1641;51.306;12.384;2022-11-20T12:37:24;99482.00;;;2.10
24639;BMP180;1641;51.306;12.384;2022-11-20T12:39:55;99483.00;;;2.20
24639;BMP180;1641;51.306;12.384;2022-11-20T12:45:54;99485.00;;;2.00
24639;BMP180;1641;51.306;12.384;2022-11-20T12:48:52;99479.00;;;2.20
24639;BMP180;1641;51.306;12.384;2022-11-20T12:51:47;99470.00;;;1.90
24639;BMP180;1641;51.306;12.384;2022-11-20T12:57:47;99469.00;;;1.90
24639;BMP180;1641;51.306;12.384;2022-11-20T13:00:19;99466.00;;;2.00
24639;BMP180;1641;51.306;12.384;2022-11-20T13:05:31;99478.00;;;2.40
24639;BMP180;1641;51.306;12.384;2022-11-20T13:08:00;99467.00;;;2.10
24639;BMP180;1641;51.306;12.384;2022-11-20T13:10:33;99468.00;;;2.60
24639;BMP180;1641;51.306;12.384;2022-11-20T13:13:07;99460.00;;;1.90
24639;BMP180;1641;51.306;12.384;2022-11-20T13:18:26;99470.00;;;1.90
24639;BMP180;1641;51.306;12.384;2022-11-20T13:20:52;99465.00;;;1.90
24639;BMP180;1641;51.306;12.384;2022-11-20T13:23:25;99424.00;;;2.30
24639;BMP180;1641;51.306;12.384;2022-11-20T13:26:23;99471.00;;;2.00
24639;BMP180;1641;51.306;12.384;2022-11-20T13:29:00;99460.00;;;2.20
24639;BMP180;1641;51.306;12.384;2022-11-20T13:31:32;99454.00;;;2.30
24639;BMP180;1641;51.306;12.384;2022-11-20T13:34:01;99447.00;;;2.30
24639;BMP180;1641;51.306;12.384;2022-11-20T13:36:29;99457.00;;;2.50
24639;BMP180;1641;51.306;12.384;2022-11-20T13:38:55;99459.00;;;2.40
24639;BMP180;1641;51.306;12.384;2022-11-20T13:41:32;99454.00;;;2.40
24639;BMP180;1641;51.306;12.384;2022-11-20T13:44:27;99440.00;;;2.70
24639;BMP180;1641;51.306;12.384;2022-11-20T13:46:53;99456.00;;;2.40
24639;BMP180;1641;51.306;12.384;2022-11-20T13:49:31;99444.00;;;2.70
24639;BMP180;1641;51.306;12.384;2022-11-20T13:52:17;99441.00;;;2.60
24639;BMP180;1641;51.306;12.384;2022-11-20T13:55:06;99424.00;;;2.60
24639;BMP180;1641;51.306;12.384;2022-11-20T14:00:22;99440.00;;;3.30
24639;BMP180;1641;51.306;12.384;2022-11-20T14:02:59;99396.00;;;3.60
24639;BMP180;1641;51.306;12.384;2022-11-20T14:05:28;99430.00;;;3.40
24639;BMP180;1641;51.306;12.384;2022-11-20T14:07:56;99429.00;;;3.10
24639;BMP180;1641;51.306;12.384;2022-11-20T14:10:25;99425.00;;;3.00
24639;BMP180;1641;51.306;12.384;2022-11-20T14:12:51;99428.00;;;2.90
24639;BMP180;1641;51.306;12.384;2022-11-20T14:15:27;99433.00;;;3.30
24639;BMP180;1641;51.306;12.384;2022-11-20T14:17:53;99419.00;;;2.90
24639;BMP180;1641;51.306;12.384;2022-11-20T14:20:18;99436.00;;;2.70
24639;BMP180;1641;51.306;12.384;2022-11-20T14:22:52;99437.00;;;2.80
24639;BMP180;1641;51.306;12.384;2022-11-20T14:27:51;99448.00;;;2.30
24639;BMP180;1641;51.306;12.384;2022-11-20T14:30:20;99438.00;;;2.30
24639;BMP180;1641;51.306;12.384;2022-11-20T14:32:46;99399.00;;;2.10
24639;BMP180;1641;51.306;12.384;2022-11-20T14:35:34;99437.00;;;2.00
24639;BMP180;1641;51.306;12.384;2022-11-20T14:38:01;99429.00;;;2.10
24639;BMP180;1641;51.306;12.384;2022-11-20T14:40:36;99353.00;;;2.20
24639;BMP180;1641;51.306;12.384;2022-11-20T14:43:36;99427.00;;;2.10
24639;BMP180;1641;51.306;12.384;2022-11-20T14:46:18;99450.00;;;1.90
24639;BMP180;1641;51.306;12.384;2022-11-20T14:48:52;99439.00;;;1.70
24639;BMP180;1641;51.306;12.384;2022-11-20T14:51:39;99452.00;;;1.60
24639;BMP180;1641;51.306;12.384;2022-11-20T14:54:15;99457.00;;;2.00
24639;BMP180;1641;51.306;12.384;2022-11-20T14:57:01;99365.00;;;1.60
24639;BMP180;1641;51.306;12.384;2022-11-20T14:59:32;99429.00;;;1.70
24639;BMP180;1641;51.306;12.384;2022-11-20T15:02:11;99408.00;;;1.80
24639;BMP180;1641;51.306;12.384;2022-11-20T15:04:50;99440.00;;;2.00
24639;BMP180;1641;51.306;12.384;2022-11-20T15:07:37;99444.00;;;2.00
24639;BMP180;1641;51.306;12.384;2022-11-20T15:10:23;99444.00;;;2.20
24639;BMP180;1641;51.306;12.384;2022-11-20T15:12:52;99446.00;;;1.80
24639;BMP180;1641;51.306;12.384;2022-11-20T15:15:24;99442.00;;;1.60
24639;BMP180;1641;51.306;12.384;2022-11-20T15:17:49;99426.00;;;1.60
24639;BMP180;1641;51.306;12.384;2022-11-20T15:20:16;99458.00;;;1.50
24639;BMP180;1641;51.306;12.384;2022-11-20T15:22:42;99458.00;;;1.50
24639;BMP180;1641;51.306;12.384;2022-11-20T15:25:15;99449.00;;;1.70
24639;BMP180;1641;51.306;12.384;2022-11-20T15:27:45;99418.00;;;1.70
24639;BMP180;1641;51.306;12.384;2022-11-20T15:30:26;99446.00;;;1.80
24639;BMP180;1641;51.306;12.384;2022-11-20T15:32:51;99450.00;;;1.90
24639;BMP180;1641;51.306;12.384;2022-11-20T15:35:20;99441.00;;;2.00
24639;BMP180;1641;51.306;12.384;2022-11-20T15:37:45;99441.00;;;1.90
24639;BMP180;1641;51.306;12.384;2022-11-20T15:40:11;99430.00;;;1.70
24639;BMP180;1641;51.306;12.384;2022-11-20T15:42:39;99446.00;;;1.40